Terminal Aerodrome Forecast
Issued by NWS Sioux Falls, SD

Home | Current Version | Previous Version | Graphics & Text | Print | Product List | Glossary On
Versions: 1 2 3 4 5 6 7 8 9 10 11 12 13 14 15 16 17
683
FTUS43 KFSD 231106 AAC
TAFFSD
TAF AMD
KFSD 231106Z 2311/2406 02012G18KT P6SM OVC010
     FM231700 05011KT 6SM -SN BR OVC010
     FM231900 06016G24KT 4SM -SN OVC008
     FM232300 05020G28KT 1SM -SN BR OVC005
     FM240100 04022G30KT 1/2SM SN BLSN OVC004=

USA.gov is the U.S. government's official web portal to all federal, state and local government web resources and services.